RRR5953 EGBB-EGVN
Flight info
| Callsign | RRR5953 |
|---|---|
| Flight time | 0h 26m |
| Altitude | 8000 |
| Route | LUXTO DCT GST DCT TEWXI DCT BIBPE |
| Aircraft | C130/M-SDE2E3FGRY/H |
Departure
| Time | 2026-05-06 16:32 |
|---|---|
| Airport | Birmingham Airport (EGBB) |
Arrival
| Time | 2026-05-06 16:59 |
|---|---|
| Airport | RAF Brize Norton (EGVN) |
| Time | Latitude | Longitude | Altitude | Speed | Heading |
|---|---|---|---|---|---|
| 2026-05-06 15:52 | 52.45100 | -1.74967 | 323 ft | 0 kts | 145° |
| 2026-05-06 16:30 | 52.45098 | -1.74963 | 326 ft | 3 kts | 137° |
| 2026-05-06 16:30 | 52.45098 | -1.74924 | 325 ft | 8 kts | 65° |
| 2026-05-06 16:30 | 52.45106 | -1.74841 | 324 ft | 6 kts | 130° |
| 2026-05-06 16:30 | 52.45053 | -1.74779 | 324 ft | 8 kts | 147° |
| 2026-05-06 16:31 | 52.44998 | -1.74705 | 325 ft | 11 kts | 121° |
| 2026-05-06 16:31 | 52.44982 | -1.74608 | 326 ft | 8 kts | 103° |
| 2026-05-06 16:31 | 52.44966 | -1.74478 | 325 ft | 15 kts | 99° |
| 2026-05-06 16:31 | 52.45015 | -1.74390 | 327 ft | 14 kts | 336° |
| 2026-05-06 16:32 | 52.45286 | -1.74690 | 324 ft | 96 kts | 326° |
| 2026-05-06 16:32 | 52.46052 | -1.75523 | 527 ft | 154 kts | 325° |
| 2026-05-06 16:32 | 52.46919 | -1.76504 | 1005 ft | 151 kts | 325° |
| 2026-05-06 16:32 | 52.47870 | -1.77526 | 1586 ft | 179 kts | 333° |
| 2026-05-06 16:33 | 52.49158 | -1.77772 | 2324 ft | 200 kts | 14° |
| 2026-05-06 16:33 | 52.50311 | -1.76416 | 3143 ft | 214 kts | 54° |
| 2026-05-06 16:33 | 52.51029 | -1.74225 | 4023 ft | 222 kts | 65° |
| 2026-05-06 16:34 | 52.52252 | -1.69501 | 5626 ft | 227 kts | 76° |
| 2026-05-06 16:34 | 52.52228 | -1.66888 | 5934 ft | 239 kts | 108° |
| 2026-05-06 16:34 | 52.51323 | -1.64514 | 6005 ft | 254 kts | 132° |
| 2026-05-06 16:34 | 52.50117 | -1.62511 | 5992 ft | 245 kts | 136° |
| 2026-05-06 16:35 | 52.48906 | -1.60591 | 5984 ft | 239 kts | 136° |
| 2026-05-06 16:35 | 52.47727 | -1.58709 | 5981 ft | 234 kts | 136° |
| 2026-05-06 16:35 | 52.46556 | -1.56887 | 5982 ft | 230 kts | 140° |
| 2026-05-06 16:35 | 52.45284 | -1.55337 | 5986 ft | 226 kts | 147° |
| 2026-05-06 16:36 | 52.43951 | -1.53984 | 5984 ft | 224 kts | 149° |
| 2026-05-06 16:36 | 52.42584 | -1.52644 | 5988 ft | 234 kts | 149° |
| 2026-05-06 16:36 | 52.41164 | -1.51252 | 5988 ft | 240 kts | 149° |
| 2026-05-06 16:36 | 52.39719 | -1.49831 | 5988 ft | 246 kts | 149° |
| 2026-05-06 16:37 | 52.38149 | -1.48285 | 5996 ft | 274 kts | 149° |
| 2026-05-06 16:37 | 52.36468 | -1.46871 | 5993 ft | 275 kts | 159° |
| 2026-05-06 16:37 | 52.34646 | -1.45972 | 5985 ft | 275 kts | 168° |
| 2026-05-06 16:37 | 52.32775 | -1.45366 | 5984 ft | 275 kts | 170° |
| 2026-05-06 16:38 | 52.30895 | -1.44806 | 5985 ft | 275 kts | 170° |
| 2026-05-06 16:38 | 52.29014 | -1.44256 | 5995 ft | 275 kts | 170° |
| 2026-05-06 16:38 | 52.27126 | -1.43711 | 5987 ft | 276 kts | 171° |
| 2026-05-06 16:38 | 52.25228 | -1.43168 | 5984 ft | 276 kts | 171° |
| 2026-05-06 16:39 | 52.23333 | -1.42628 | 5988 ft | 277 kts | 171° |
| 2026-05-06 16:39 | 52.21440 | -1.42090 | 5997 ft | 277 kts | 171° |
| 2026-05-06 16:39 | 52.19542 | -1.41552 | 6003 ft | 277 kts | 171° |
| 2026-05-06 16:39 | 52.17639 | -1.41013 | 6043 ft | 282 kts | 171° |
| 2026-05-06 16:40 | 52.15706 | -1.40465 | 6433 ft | 278 kts | 171° |
| 2026-05-06 16:40 | 52.13803 | -1.39928 | 6660 ft | 278 kts | 171° |
| 2026-05-06 16:40 | 52.11899 | -1.39391 | 6891 ft | 281 kts | 171° |
| 2026-05-06 16:40 | 52.09964 | -1.38845 | 7309 ft | 282 kts | 171° |
| 2026-05-06 16:41 | 52.08034 | -1.38302 | 7732 ft | 282 kts | 171° |
| 2026-05-06 16:41 | 52.06100 | -1.37757 | 8141 ft | 284 kts | 171° |
| 2026-05-06 16:41 | 52.04205 | -1.37225 | 8313 ft | 277 kts | 171° |
| 2026-05-06 16:41 | 52.02299 | -1.36691 | 8062 ft | 279 kts | 171° |
| 2026-05-06 16:42 | 52.00389 | -1.36155 | 7997 ft | 278 kts | 171° |
| 2026-05-06 16:42 | 51.98493 | -1.35624 | 7985 ft | 277 kts | 171° |
| 2026-05-06 16:42 | 51.96586 | -1.35090 | 7983 ft | 277 kts | 171° |
| 2026-05-06 16:42 | 51.94678 | -1.34556 | 7994 ft | 278 kts | 171° |
| 2026-05-06 16:43 | 51.92774 | -1.34024 | 7986 ft | 278 kts | 171° |
| 2026-05-06 16:43 | 51.90869 | -1.33492 | 7985 ft | 278 kts | 171° |
| 2026-05-06 16:43 | 51.88969 | -1.32962 | 7990 ft | 283 kts | 171° |
| 2026-05-06 16:43 | 51.87027 | -1.32420 | 7986 ft | 283 kts | 171° |
| 2026-05-06 16:44 | 51.85060 | -1.31872 | 7985 ft | 283 kts | 171° |
| 2026-05-06 16:44 | 51.83154 | -1.31342 | 7986 ft | 283 kts | 171° |
| 2026-05-06 16:44 | 51.81208 | -1.30801 | 7988 ft | 283 kts | 171° |
| 2026-05-06 16:44 | 51.79271 | -1.30263 | 7985 ft | 283 kts | 171° |
| 2026-05-06 16:45 | 51.77326 | -1.29722 | 7985 ft | 283 kts | 171° |
| 2026-05-06 16:45 | 51.75384 | -1.29184 | 7986 ft | 283 kts | 171° |
| 2026-05-06 16:45 | 51.73443 | -1.28647 | 7987 ft | 283 kts | 171° |
| 2026-05-06 16:45 | 51.71495 | -1.28107 | 7985 ft | 283 kts | 171° |
| 2026-05-06 16:46 | 51.69553 | -1.27570 | 7987 ft | 283 kts | 171° |
| 2026-05-06 16:46 | 51.67604 | -1.27032 | 7985 ft | 284 kts | 171° |
| 2026-05-06 16:46 | 51.65662 | -1.26486 | 7994 ft | 283 kts | 170° |
| 2026-05-06 16:46 | 51.63732 | -1.25851 | 7991 ft | 283 kts | 167° |
| 2026-05-06 16:47 | 51.62475 | -1.25274 | 7987 ft | 283 kts | 162° |
| 2026-05-06 16:47 | 51.61852 | -1.24902 | 7984 ft | 283 kts | 158° |
| 2026-05-06 16:47 | 51.59083 | -1.21831 | 7985 ft | 284 kts | 131° |
| 2026-05-06 16:47 | 51.58086 | -1.19097 | 7984 ft | 284 kts | 109° |
| 2026-05-06 16:48 | 51.57902 | -1.15959 | 7982 ft | 285 kts | 81° |
| 2026-05-06 16:48 | 51.58731 | -1.13121 | 7982 ft | 284 kts | 47° |
| 2026-05-06 16:48 | 51.60438 | -1.11637 | 7984 ft | 283 kts | 8° |
| 2026-05-06 16:48 | 51.62306 | -1.12208 | 7986 ft | 268 kts | 328° |
| 2026-05-06 16:49 | 51.63393 | -1.14461 | 7985 ft | 258 kts | 285° |
| 2026-05-06 16:49 | 51.63261 | -1.17294 | 7915 ft | 259 kts | 252° |
| 2026-05-06 16:49 | 51.62745 | -1.20010 | 7823 ft | 256 kts | 254° |
| 2026-05-06 16:49 | 51.62284 | -1.22779 | 8193 ft | 260 kts | 256° |
| 2026-05-06 16:50 | 51.61867 | -1.25619 | 8068 ft | 258 kts | 257° |
| 2026-05-06 16:50 | 51.61461 | -1.28415 | 8164 ft | 253 kts | 257° |
| 2026-05-06 16:50 | 51.61084 | -1.31097 | 8494 ft | 237 kts | 257° |
| 2026-05-06 16:50 | 51.60712 | -1.33685 | 8277 ft | 241 kts | 257° |
| 2026-05-06 16:51 | 51.60356 | -1.36370 | 8031 ft | 245 kts | 257° |
| 2026-05-06 16:51 | 51.59966 | -1.39018 | 7974 ft | 241 kts | 256° |
| 2026-05-06 16:51 | 51.59580 | -1.41646 | 7842 ft | 241 kts | 258° |
| 2026-05-06 16:51 | 51.59248 | -1.44286 | 7765 ft | 238 kts | 258° |
| 2026-05-06 16:52 | 51.58925 | -1.46873 | 7716 ft | 236 kts | 259° |
| 2026-05-06 16:52 | 51.58646 | -1.49512 | 7429 ft | 243 kts | 262° |
| 2026-05-06 16:52 | 51.58399 | -1.52176 | 7378 ft | 238 kts | 262° |
| 2026-05-06 16:52 | 51.58188 | -1.54820 | 7253 ft | 238 kts | 264° |
| 2026-05-06 16:53 | 51.58075 | -1.57472 | 7047 ft | 241 kts | 268° |
| 2026-05-06 16:53 | 51.58095 | -1.60176 | 6890 ft | 241 kts | 272° |
| 2026-05-06 16:53 | 51.58146 | -1.62847 | 6799 ft | 234 kts | 271° |
| 2026-05-06 16:53 | 51.58207 | -1.65421 | 6425 ft | 230 kts | 273° |
| 2026-05-06 16:54 | 51.58370 | -1.67972 | 5848 ft | 226 kts | 280° |
| 2026-05-06 16:54 | 51.58790 | -1.70352 | 5370 ft | 218 kts | 292° |
| 2026-05-06 16:54 | 51.59572 | -1.72371 | 4913 ft | 210 kts | 312° |
| 2026-05-06 16:54 | 51.60734 | -1.73776 | 4383 ft | 207 kts | 335° |
| 2026-05-06 16:55 | 51.62069 | -1.74418 | 4079 ft | 197 kts | 350° |
| 2026-05-06 16:55 | 51.63462 | -1.74595 | 3611 ft | 205 kts | 0° |
| 2026-05-06 16:55 | 51.64879 | -1.74464 | 3307 ft | 202 kts | 5° |
| 2026-05-06 16:55 | 51.66260 | -1.74190 | 3020 ft | 199 kts | 8° |
| 2026-05-06 16:56 | 51.67586 | -1.73750 | 2772 ft | 195 kts | 14° |
| 2026-05-06 16:56 | 51.68875 | -1.73099 | 2510 ft | 193 kts | 21° |
| 2026-05-06 16:56 | 51.70087 | -1.72191 | 2184 ft | 194 kts | 26° |
| 2026-05-06 16:56 | 51.71267 | -1.71154 | 1861 ft | 189 kts | 31° |
| 2026-05-06 16:57 | 51.72271 | -1.69911 | 1609 ft | 176 kts | 45° |
| 2026-05-06 16:57 | 51.72972 | -1.68372 | 1291 ft | 165 kts | 62° |
| 2026-05-06 16:57 | 51.73394 | -1.66749 | 999 ft | 147 kts | 71° |
| 2026-05-06 16:57 | 51.73695 | -1.65256 | 795 ft | 138 kts | 73° |
| 2026-05-06 16:58 | 51.73978 | -1.63742 | 656 ft | 144 kts | 72° |
| 2026-05-06 16:58 | 51.74286 | -1.62173 | 518 ft | 146 kts | 73° |
| 2026-05-06 16:58 | 51.74558 | -1.60668 | 323 ft | 135 kts | 73° |
| 2026-05-06 16:58 | 51.74803 | -1.59313 | 262 ft | 109 kts | 73° |
| 2026-05-06 16:59 | 51.74936 | -1.58625 | 264 ft | 40 kts | 73° |
| 2026-05-06 16:59 | 51.74992 | -1.58308 | 262 ft | 21 kts | 76° |
| 2026-05-06 16:59 | 51.75049 | -1.58142 | 262 ft | 13 kts | 39° |
| 2026-05-06 16:59 | 51.75122 | -1.58074 | 263 ft | 14 kts | 27° |
| 2026-05-06 17:00 | 51.75214 | -1.57994 | 262 ft | 13 kts | 28° |
| 2026-05-06 17:00 | 51.75277 | -1.57939 | 262 ft | 8 kts | 28° |
| 2026-05-06 17:00 | 51.75312 | -1.57908 | 262 ft | 7 kts | 28° |
| 2026-05-06 17:00 | 51.75359 | -1.57868 | 262 ft | 9 kts | 27° |
| 2026-05-06 17:01 | 51.75419 | -1.57817 | 262 ft | 11 kts | 27° |
| 2026-05-06 17:01 | 51.75491 | -1.57758 | 262 ft | 12 kts | 27° |
| 2026-05-06 17:01 | 51.75570 | -1.57692 | 262 ft | 13 kts | 27° |
| 2026-05-06 17:01 | 51.75656 | -1.57646 | 262 ft | 13 kts | 17° |
| 2026-05-06 17:02 | 51.75720 | -1.57662 | 262 ft | 10 kts | 327° |
| 2026-05-06 17:02 | 51.75765 | -1.57708 | 262 ft | 2 kts | 327° |
| 2026-05-06 17:02 | 51.75815 | -1.57760 | 262 ft | 10 kts | 327° |
| 2026-05-06 17:03 | 51.75766 | -1.57708 | 262 ft | 0 kts | 326° |